createdAt,value
2022-08-20T00:00:02.345Z,72756.06
2022-08-20T00:00:39.725Z,72758.06
2022-08-20T00:01:12.066Z,72760.06
2022-08-20T00:01:44.503Z,72758.06
2022-08-20T00:02:19.505Z,72762.06
2022-08-20T00:02:54.401Z,72758.06
2022-08-20T00:03:29.971Z,72762.06
2022-08-20T00:04:04.946Z,72760.06
2022-08-20T00:04:39.694Z,72766.06
2022-08-20T00:05:12.989Z,72762.06
2022-08-20T00:05:52.233Z,72760.06
2022-08-20T00:06:29.119Z,72770.06
2022-08-20T00:07:04.109Z,72762.06
2022-08-20T00:07:39.158Z,72762.06
2022-08-20T00:08:11.899Z,72758.06
2022-08-20T00:08:44.721Z,72768.06
2022-08-20T00:09:19.869Z,72762.06
2022-08-20T00:09:52.204Z,72760.06
2022-08-20T00:10:25.250Z,72766.06
2022-08-20T00:11:01.153Z,72768.06
2022-08-20T00:11:34.159Z,72762.06
2022-08-20T00:12:06.910Z,72766.06
2022-08-20T00:12:46.697Z,72774.03
2022-08-20T00:13:22.931Z,72766.06
2022-08-20T00:13:58.429Z,72762.06
2022-08-20T00:14:34.064Z,72762.06
2022-08-20T00:15:07.575Z,72768.06
2022-08-20T00:15:40.042Z,72774.03
2022-08-20T00:16:15.787Z,72772.03
2022-08-20T00:16:48.101Z,72772.03
2022-08-20T00:17:20.447Z,72770.06
2022-08-20T00:17:55.901Z,72760.06
2022-08-20T00:18:28.562Z,72770.06
2022-08-20T00:19:02.121Z,72766.06
2022-08-20T00:19:37.221Z,72770.06
2022-08-20T00:20:12.154Z,72766.06
2022-08-20T00:20:46.386Z,72762.06
2022-08-20T00:21:23.358Z,72766.06
2022-08-20T00:21:58.538Z,72770.06
2022-08-20T00:22:36.230Z,72766.06
2022-08-20T00:23:10.571Z,72766.06
2022-08-20T00:23:45.795Z,72770.06
2022-08-20T00:24:20.773Z,72766.06
2022-08-20T00:24:53.098Z,72770.06
2022-08-20T00:25:26.698Z,72758.06
2022-08-20T00:26:01.641Z,72758.06
2022-08-20T00:26:34.305Z,72768.06
2022-08-20T00:27:06.741Z,72762.06
2022-08-20T00:27:41.790Z,72762.06
2022-08-20T00:28:14.921Z,72762.06
2022-08-20T00:28:47.590Z,72762.06
2022-08-20T00:29:22.634Z,72762.06
2022-08-20T00:29:54.992Z,72758.06
2022-08-20T00:30:27.870Z,72768.06
2022-08-20T00:31:02.830Z,72762.06
2022-08-20T00:31:35.237Z,72764.06
2022-08-20T00:32:07.813Z,72766.06
2022-08-20T00:32:47.225Z,72768.06
2022-08-20T00:33:21.368Z,72768.06
2022-08-20T00:33:56.516Z,72770.06
2022-08-20T00:34:29.048Z,72766.06
2022-08-20T00:35:01.396Z,72770.06
2022-08-20T00:35:38.031Z,72770.06
2022-08-20T00:36:12.353Z,72766.06
2022-08-20T00:36:47.361Z,72772.03
2022-08-20T00:37:19.712Z,72768.06
2022-08-20T00:37:58.699Z,72766.06
2022-08-20T00:38:36.670Z,72766.06
2022-08-20T00:39:09.073Z,72770.06
2022-08-20T00:39:41.499Z,72768.06
2022-08-20T00:40:22.910Z,72764.06
2022-08-20T00:40:58.119Z,72770.06
2022-08-20T00:41:33.910Z,72772.03
2022-08-20T00:42:06.591Z,72770.06
2022-08-20T00:42:43.151Z,72764.06
2022-08-20T00:43:36.679Z,72770.06
2022-08-20T00:44:13.667Z,72762.06
2022-08-20T00:44:49.786Z,72764.06
2022-08-20T00:45:22.150Z,72762.06
2022-08-20T00:45:57.420Z,72762.06
2022-08-20T00:46:32.651Z,72762.06
2022-08-20T00:47:05.365Z,72770.06
2022-08-20T00:47:40.502Z,72766.06
2022-08-20T00:48:26.357Z,72766.06
2022-08-20T00:48:58.845Z,72762.06
2022-08-20T00:49:35.158Z,72768.06
2022-08-20T00:50:09.497Z,72762.06
2022-08-20T00:50:41.831Z,72766.06
2022-08-20T00:51:19.312Z,72762.06
2022-08-20T00:51:58.457Z,72762.06
2022-08-20T00:52:30.882Z,72762.06
2022-08-20T00:53:07.730Z,72770.06
2022-08-20T00:53:42.827Z,72766.06
2022-08-20T00:54:18.209Z,72758.06
2022-08-20T00:54:56.665Z,72766.06
2022-08-20T00:55:31.702Z,72758.06
2022-08-20T00:56:05.361Z,72762.06
2022-08-20T00:56:43.073Z,72760.06
2022-08-20T00:57:20.118Z,72760.06
2022-08-20T00:58:01.348Z,72760.06
2022-08-20T00:58:37.376Z,72760.06
2022-08-20T00:59:11.998Z,72760.06
2022-08-20T00:59:46.998Z,72762.06
2022-08-20T01:00:23.124Z,72762.06
2022-08-20T01:00:55.830Z,72764.06
2022-08-20T01:01:34.624Z,72752.09
2022-08-20T01:02:29.721Z,72756.06
2022-08-20T01:03:04.886Z,72758.06
2022-08-20T01:03:42.445Z,72750.09
2022-08-20T01:04:14.785Z,72750.09
2022-08-20T01:04:54.049Z,72752.09
2022-08-20T01:05:29.538Z,72756.06
2022-08-20T01:06:02.322Z,72758.06
2022-08-20T01:06:34.686Z,72756.06
2022-08-20T01:07:10.694Z,72752.09
2022-08-20T01:07:45.105Z,72754.09
2022-08-20T01:08:24.274Z,72752.09
2022-08-20T01:08:56.663Z,72758.06
2022-08-20T01:09:50.567Z,72750.09
2022-08-20T01:10:28.209Z,72746.09
2022-08-20T01:11:12.654Z,72754.09
2022-08-20T01:11:45.004Z,72756.06
2022-08-20T01:12:19.025Z,72752.09
2022-08-20T01:12:55.612Z,72748.09
2022-08-20T01:13:31.997Z,72748.09
2022-08-20T01:14:22.313Z,72754.09
2022-08-20T01:14:55.669Z,72756.06
2022-08-20T01:15:32.901Z,72746.09
2022-08-20T01:16:11.622Z,72754.09
2022-08-20T01:16:47.413Z,72754.09
2022-08-20T01:17:23.886Z,72758.06
2022-08-20T01:17:58.730Z,72752.09
2022-08-20T01:18:34.477Z,72758.06
2022-08-20T01:19:29.444Z,72758.06
2022-08-20T01:20:09.749Z,72760.06
2022-08-20T01:20:45.046Z,72754.09
2022-08-20T01:21:22.486Z,72752.09
2022-08-20T01:21:55.049Z,72750.09
2022-08-20T01:22:50.017Z,72754.09
2022-08-20T01:23:36.863Z,72752.09
2022-08-20T01:24:22.749Z,72760.06
2022-08-20T01:24:58.111Z,72760.06
2022-08-20T01:25:44.703Z,72758.06
2022-08-20T01:26:20.402Z,72758.06
2022-08-20T01:26:55.547Z,72764.06
2022-08-20T01:27:28.062Z,72756.06
2022-08-20T01:28:03.818Z,72758.06
2022-08-20T01:28:39.732Z,72758.06
2022-08-20T01:29:19.230Z,72762.06
2022-08-20T01:29:52.175Z,72762.06
2022-08-20T01:30:27.136Z,72760.06
2022-08-20T01:31:02.186Z,72764.06
2022-08-20T01:31:36.334Z,72762.06
2022-08-20T01:32:08.717Z,72762.06
2022-08-20T01:32:41.238Z,72764.06
2022-08-20T01:33:16.178Z,72766.06
2022-08-20T01:33:49.290Z,72766.06
2022-08-20T01:34:24.746Z,72764.06
2022-08-20T01:34:57.177Z,72766.06
2022-08-20T01:35:30.090Z,72770.06
2022-08-20T01:36:05.334Z,72766.06
2022-08-20T01:36:45.574Z,72770.06
2022-08-20T01:37:18.586Z,72762.06
2022-08-20T01:37:51.026Z,72772.03
2022-08-20T01:38:26.042Z,72766.06
2022-08-20T01:38:58.979Z,72768.06
2022-08-20T01:39:35.039Z,72770.06
2022-08-20T01:40:09.337Z,72766.06
2022-08-20T01:41:19.357Z,72766.06
2022-08-20T01:42:08.058Z,72770.06
2022-08-20T01:42:58.521Z,72772.03
2022-08-20T01:43:32.220Z,72772.03
2022-08-20T01:44:16.758Z,72772.03
2022-08-20T01:44:50.934Z,72772.03
2022-08-20T01:45:27.682Z,72774.03
2022-08-20T01:46:04.662Z,72774.03
2022-08-20T01:46:43.756Z,72776.03
2022-08-20T01:47:22.521Z,72774.03
2022-08-20T01:47:54.978Z,72780.03
2022-08-20T01:48:27.653Z,72778.03
2022-08-20T01:49:13.625Z,72774.03
2022-08-20T01:49:52.383Z,72778.03
2022-08-20T01:50:26.846Z,72778.03
2022-08-20T01:51:07.715Z,72776.03
2022-08-20T01:51:40.853Z,72782.03
2022-08-20T01:52:17.654Z,72790.00
2022-08-20T01:52:56.205Z,72778.03
2022-08-20T01:53:33.642Z,72782.03
2022-08-20T01:54:06.443Z,72790.00
2022-08-20T01:54:41.421Z,72792.00
2022-08-20T01:55:14.026Z,72790.00
2022-08-20T01:55:46.594Z,72790.00
2022-08-20T01:56:28.554Z,72792.00
2022-08-20T01:57:04.978Z,72786.00
2022-08-20T01:57:40.047Z,72790.00
2022-08-20T01:58:15.147Z,72790.00
2022-08-20T01:58:55.917Z,72786.00
2022-08-20T01:59:31.405Z,72782.03
2022-08-20T02:00:08.898Z,72786.00
2022-08-20T02:00:50.460Z,72786.00
2022-08-20T02:01:28.549Z,72788.00
2022-08-20T02:02:02.676Z,72790.00
2022-08-20T02:02:35.033Z,72786.00
2022-08-20T02:03:10.046Z,72788.00
2022-08-20T02:03:44.786Z,72790.00
2022-08-20T02:04:18.168Z,72794.00
2022-08-20T02:04:53.143Z,72792.00
2022-08-20T02:05:30.328Z,72790.00
2022-08-20T02:06:03.446Z,72792.00
2022-08-20T02:06:41.042Z,72794.00
2022-08-20T02:07:30.091Z,72794.00
2022-08-20T02:08:05.868Z,72800.00
2022-08-20T02:08:38.541Z,72794.00
2022-08-20T02:09:15.626Z,72786.00
2022-08-20T02:09:52.590Z,72790.00
2022-08-20T02:10:25.309Z,72786.00
2022-08-20T02:10:57.889Z,72790.00
2022-08-20T02:11:36.171Z,72790.00
2022-08-20T02:12:10.330Z,72792.00
2022-08-20T02:12:42.757Z,72794.00
2022-08-20T02:13:18.148Z,72794.00
2022-08-20T02:13:52.764Z,72786.00
2022-08-20T02:14:25.356Z,72788.00
2022-08-20T02:15:00.670Z,72790.00
2022-08-20T02:15:37.151Z,72790.00
2022-08-20T02:16:12.629Z,72786.00
2022-08-20T02:16:55.033Z,72790.00
2022-08-20T02:17:28.214Z,72794.00
2022-08-20T02:18:03.189Z,72790.00
2022-08-20T02:18:35.990Z,72794.00
2022-08-20T02:19:13.453Z,72794.00
2022-08-20T02:19:47.604Z,72790.00
2022-08-20T02:20:24.966Z,72790.00
2022-08-20T02:20:59.934Z,72794.00
2022-08-20T02:21:33.991Z,72788.00
2022-08-20T02:22:24.450Z,72792.00
2022-08-20T02:23:01.978Z,72786.00
2022-08-20T02:23:34.557Z,72790.00
2022-08-20T02:24:07.403Z,72792.00
2022-08-20T02:24:44.356Z,72790.00
2022-08-20T02:25:17.214Z,72788.00
2022-08-20T02:25:49.573Z,72790.00
2022-08-20T02:26:22.577Z,72790.00
2022-08-20T02:27:00.410Z,72794.00
2022-08-20T02:27:32.886Z,72790.00
2022-08-20T02:28:09.890Z,72794.00
2022-08-20T02:28:45.258Z,72790.00
2022-08-20T02:29:36.344Z,72792.00
2022-08-20T02:30:33.335Z,72790.00
2022-08-20T02:31:25.202Z,72784.03
2022-08-20T02:32:32.519Z,72790.00
2022-08-20T02:33:27.036Z,72786.00
2022-08-20T02:34:23.096Z,72790.00
2022-08-20T02:35:16.047Z,72786.00
2022-08-20T02:36:12.497Z,72782.03
2022-08-20T02:37:07.185Z,72788.00
2022-08-20T02:38:02.791Z,72786.00
2022-08-20T02:38:55.478Z,72784.03
2022-08-20T02:39:50.870Z,72788.00
2022-08-20T02:40:44.578Z,72790.00
2022-08-20T02:41:29.781Z,72790.00
2022-08-20T02:42:05.347Z,72790.00
2022-08-20T02:42:43.466Z,72790.00
2022-08-20T02:43:21.482Z,72792.00
2022-08-20T02:43:53.829Z,72790.00
2022-08-20T02:44:26.166Z,72788.00
2022-08-20T02:45:01.109Z,72790.00
2022-08-20T02:45:37.496Z,72790.00
2022-08-20T02:46:10.177Z,72794.00
2022-08-20T02:46:45.074Z,72792.00
2022-08-20T02:47:17.474Z,72794.00
2022-08-20T02:47:52.645Z,72790.00
2022-08-20T02:48:28.238Z,72790.00
2022-08-20T02:49:00.862Z,72792.00
2022-08-20T02:49:33.345Z,72792.00
2022-08-20T02:50:10.594Z,72790.00
2022-08-20T02:50:44.391Z,72790.00
2022-08-20T02:51:16.759Z,72788.00
2022-08-20T02:52:02.710Z,72786.00
2022-08-20T02:52:35.054Z,72790.00
2022-08-20T02:53:07.725Z,72792.00
2022-08-20T02:53:44.157Z,72790.00
2022-08-20T02:54:17.458Z,72790.00
2022-08-20T02:54:50.399Z,72786.00
2022-08-20T02:55:28.231Z,72794.00
2022-08-20T02:56:01.170Z,72790.00
2022-08-20T02:56:36.575Z,72792.00
2022-08-20T02:57:15.736Z,72790.00
2022-08-20T02:57:48.033Z,72786.00
2022-08-20T02:58:25.937Z,72794.00
2022-08-20T02:58:58.294Z,72792.00
2022-08-20T02:59:30.590Z,72790.00
2022-08-20T03:00:06.930Z,72784.03
2022-08-20T03:00:39.546Z,72796.00
2022-08-20T03:01:14.675Z,72786.00
2022-08-20T03:02:00.554Z,72794.00
2022-08-20T03:02:35.322Z,72786.00
2022-08-20T03:03:08.372Z,72792.00
2022-08-20T03:03:44.465Z,72790.00
2022-08-20T03:04:16.883Z,72790.00
2022-08-20T03:04:49.542Z,72794.00
2022-08-20T03:05:24.513Z,72790.00
2022-08-20T03:05:58.884Z,72792.00
2022-08-20T03:06:31.574Z,72794.00
2022-08-20T03:07:07.871Z,72790.00
2022-08-20T03:07:43.646Z,72790.00
2022-08-20T03:08:17.037Z,72790.00
2022-08-20T03:08:51.989Z,72790.00
2022-08-20T03:09:24.565Z,72786.00
2022-08-20T03:09:56.937Z,72794.00
2022-08-20T03:10:34.433Z,72790.00
2022-08-20T03:11:07.321Z,72792.00
2022-08-20T03:11:42.414Z,72798.00
2022-08-20T03:12:17.419Z,72790.00
2022-08-20T03:12:49.726Z,72794.00
2022-08-20T03:13:23.322Z,72790.00
2022-08-20T03:14:01.385Z,72788.00
2022-08-20T03:14:34.175Z,72798.00
2022-08-20T03:15:17.519Z,72786.00
2022-08-20T03:15:58.791Z,72790.00
2022-08-20T03:16:31.528Z,72794.00
2022-08-20T03:17:04.487Z,72796.00
2022-08-20T03:17:40.071Z,72794.00
2022-08-20T03:18:12.617Z,72798.00
2022-08-20T03:18:46.479Z,72790.00
2022-08-20T03:19:21.530Z,72798.00
2022-08-20T03:19:55.295Z,72798.00
2022-08-20T03:20:28.777Z,72794.00
2022-08-20T03:21:09.922Z,72798.00
2022-08-20T03:21:42.515Z,72800.00
2022-08-20T03:22:23.613Z,72798.00
2022-08-20T03:23:00.245Z,72794.00
2022-08-20T03:23:32.868Z,72798.00
2022-08-20T03:24:07.558Z,72801.97
2022-08-20T03:24:42.488Z,72801.97
2022-08-20T03:25:16.535Z,72794.00
2022-08-20T03:25:51.698Z,72798.00
2022-08-20T03:26:26.652Z,72798.00
2022-08-20T03:26:59.150Z,72794.00
2022-08-20T03:27:36.157Z,72794.00
2022-08-20T03:28:12.457Z,72798.00
2022-08-20T03:28:47.282Z,72798.00
2022-08-20T03:29:21.673Z,72794.00
2022-08-20T03:29:56.681Z,72798.00
2022-08-20T03:30:31.464Z,72792.00
2022-08-20T03:31:07.155Z,72798.00
2022-08-20T03:31:40.719Z,72794.00
2022-08-20T03:32:13.616Z,72801.97
2022-08-20T03:32:50.504Z,72798.00
2022-08-20T03:33:25.092Z,72805.97
2022-08-20T03:34:01.881Z,72801.97
2022-08-20T03:34:40.010Z,72801.97
2022-08-20T03:35:16.913Z,72798.00
2022-08-20T03:35:52.425Z,72801.97
2022-08-20T03:36:29.218Z,72800.00
2022-08-20T03:37:04.531Z,72809.97
2022-08-20T03:37:39.650Z,72800.00
2022-08-20T03:38:32.467Z,72813.97
2022-08-20T03:39:07.550Z,72801.97
2022-08-20T03:39:42.654Z,72809.97
2022-08-20T03:40:18.045Z,72809.97
2022-08-20T03:40:50.913Z,72801.97
2022-08-20T03:41:26.386Z,72801.97
2022-08-20T03:41:58.757Z,72807.97
2022-08-20T03:42:31.338Z,72809.97
2022-08-20T03:43:10.377Z,72809.97
2022-08-20T03:43:42.910Z,72809.97
2022-08-20T03:44:15.285Z,72817.94
2022-08-20T03:44:59.056Z,72815.97
2022-08-20T03:45:32.685Z,72811.97
2022-08-20T03:46:05.386Z,72811.97
2022-08-20T03:46:59.371Z,72819.94
2022-08-20T03:47:32.061Z,72815.97
2022-08-20T03:48:11.778Z,72811.97
2022-08-20T03:48:49.718Z,72811.97
2022-08-20T03:49:26.775Z,72813.97
2022-08-20T03:49:59.524Z,72815.97
2022-08-20T03:50:37.335Z,72811.97
2022-08-20T03:51:11.509Z,72817.94
2022-08-20T03:51:56.250Z,72815.97
2022-08-20T03:52:33.358Z,72813.97
2022-08-20T03:53:05.678Z,72809.97
2022-08-20T03:53:40.855Z,72819.94
2022-08-20T03:54:13.202Z,72813.97
2022-08-20T03:54:46.158Z,72817.94
2022-08-20T03:55:27.084Z,72815.97
2022-08-20T03:56:02.486Z,72817.94
2022-08-20T03:56:34.850Z,72817.94
2022-08-20T03:57:12.803Z,72819.94
2022-08-20T03:57:47.197Z,72821.94
2022-08-20T03:58:33.256Z,72823.94
2022-08-20T03:59:11.137Z,72817.94
2022-08-20T03:59:44.668Z,72821.94
2022-08-20T04:00:20.869Z,72825.94
2022-08-20T04:00:56.251Z,72817.94
2022-08-20T04:01:37.203Z,72825.94
2022-08-20T04:02:19.689Z,72821.94
2022-08-20T04:02:58.494Z,72821.94
2022-08-20T04:03:33.588Z,72825.94
2022-08-20T04:04:12.141Z,72821.94
2022-08-20T04:04:51.189Z,72829.94
2022-08-20T04:05:24.721Z,72827.94
2022-08-20T04:06:03.065Z,72823.94
2022-08-20T04:06:35.425Z,72823.94
2022-08-20T04:07:14.918Z,72829.94
2022-08-20T04:07:50.896Z,72831.94
2022-08-20T04:08:26.824Z,72821.94
2022-08-20T04:08:59.349Z,72827.94
2022-08-20T04:09:34.282Z,72829.94
2022-08-20T04:10:10.169Z,72829.94
2022-08-20T04:10:47.339Z,72829.94
2022-08-20T04:11:19.757Z,72825.94
2022-08-20T04:11:54.370Z,72825.94
2022-08-20T04:12:29.689Z,72825.94
2022-08-20T04:13:03.571Z,72829.94
2022-08-20T04:13:41.939Z,72833.91
2022-08-20T04:14:20.571Z,72825.94
2022-08-20T04:14:53.193Z,72821.94
2022-08-20T04:15:25.638Z,72821.94
2022-08-20T04:16:02.299Z,72829.94
2022-08-20T04:16:38.646Z,72827.94
2022-08-20T04:17:13.926Z,72829.94
2022-08-20T04:17:54.297Z,72827.94
2022-08-20T04:18:26.853Z,72829.94
2022-08-20T04:19:02.535Z,72829.94
2022-08-20T04:19:39.402Z,72835.91
2022-08-20T04:20:13.674Z,72829.94
2022-08-20T04:20:45.997Z,72833.91
2022-08-20T04:21:23.895Z,72831.94
2022-08-20T04:22:02.451Z,72833.91
2022-08-20T04:22:34.777Z,72833.91
2022-08-20T04:23:09.821Z,72833.91
2022-08-20T04:23:43.113Z,72837.91
2022-08-20T04:24:24.467Z,72841.91
2022-08-20T04:25:09.030Z,72835.91
2022-08-20T04:25:43.378Z,72837.91
2022-08-20T04:26:16.457Z,72837.91
2022-08-20T04:26:51.464Z,72837.91
2022-08-20T04:27:23.806Z,72837.91
2022-08-20T04:27:58.957Z,72839.91
2022-08-20T04:28:31.479Z,72841.91
2022-08-20T04:29:06.556Z,72845.91
2022-08-20T04:29:44.861Z,72843.91
2022-08-20T04:30:19.601Z,72841.91
2022-08-20T04:30:52.666Z,72841.91
2022-08-20T04:31:34.042Z,72845.91
2022-08-20T04:32:07.333Z,72847.88
2022-08-20T04:32:41.433Z,72843.91
2022-08-20T04:33:16.541Z,72845.91
2022-08-20T04:33:55.013Z,72843.91
2022-08-20T04:34:29.418Z,72843.91
2022-08-20T04:35:04.359Z,72845.91
2022-08-20T04:35:37.026Z,72845.91
2022-08-20T04:36:12.226Z,72843.91
2022-08-20T04:36:44.643Z,72845.91
2022-08-20T04:37:21.726Z,72851.88
2022-08-20T04:37:59.933Z,72849.88
2022-08-20T04:38:50.045Z,72849.88
2022-08-20T04:39:23.876Z,72851.88
2022-08-20T04:40:11.279Z,72853.88
2022-08-20T04:40:58.865Z,72849.88
2022-08-20T04:41:31.202Z,72851.88
2022-08-20T04:42:03.645Z,72853.88
2022-08-20T04:42:37.450Z,72849.88
2022-08-20T04:43:14.353Z,72849.88
2022-08-20T04:43:48.541Z,72847.88
2022-08-20T04:44:23.482Z,72847.88
2022-08-20T04:44:58.438Z,72845.91
2022-08-20T04:45:31.938Z,72853.88
2022-08-20T04:46:09.205Z,72853.88
2022-08-20T04:46:46.322Z,72849.88
2022-08-20T04:47:25.369Z,72855.88
2022-08-20T04:48:11.648Z,72845.91
2022-08-20T04:48:48.793Z,72855.88
2022-08-20T04:49:25.197Z,72853.88
2022-08-20T04:50:00.237Z,72857.88
2022-08-20T04:50:38.090Z,72857.88
2022-08-20T04:51:11.515Z,72853.88
2022-08-20T04:51:46.898Z,72857.88
2022-08-20T04:52:19.254Z,72855.88
2022-08-20T04:52:51.594Z,72853.88
2022-08-20T04:53:29.254Z,72853.88
2022-08-20T04:54:03.249Z,72851.88
2022-08-20T04:54:35.775Z,72855.88
2022-08-20T04:55:11.833Z,72847.88
2022-08-20T04:55:46.136Z,72851.88
2022-08-20T04:56:19.893Z,72853.88
2022-08-20T04:56:54.917Z,72853.88
2022-08-20T04:57:27.310Z,72853.88
2022-08-20T04:58:04.278Z,72851.88
2022-08-20T04:58:47.672Z,72849.88
2022-08-20T04:59:22.645Z,72857.88
2022-08-20T04:59:59.279Z,72853.88
2022-08-20T05:00:34.661Z,72857.88
2022-08-20T05:01:08.756Z,72857.88
2022-08-20T05:01:43.718Z,72861.88
2022-08-20T05:02:19.112Z,72859.88
2022-08-20T05:02:51.503Z,72857.88
2022-08-20T05:03:27.174Z,72863.84
2022-08-20T05:04:00.114Z,72857.88
2022-08-20T05:04:32.396Z,72857.88
2022-08-20T05:05:08.927Z,72865.84
2022-08-20T05:05:41.330Z,72861.88
2022-08-20T05:06:13.830Z,72861.88
2022-08-20T05:06:49.656Z,72865.84
2022-08-20T05:07:22.048Z,72863.84
2022-08-20T05:07:55.578Z,72865.84
2022-08-20T05:08:32.275Z,72861.88
2022-08-20T05:09:05.795Z,72873.84
2022-08-20T05:09:43.794Z,72867.84
2022-08-20T05:10:20.754Z,72861.88
2022-08-20T05:11:32.757Z,72865.84
2022-08-20T05:11:49.286Z,72869.84
2022-08-20T05:12:21.739Z,72865.84
2022-08-20T05:12:56.892Z,72869.84
2022-08-20T05:13:32.499Z,72865.84
2022-08-20T05:14:08.048Z,72865.84
2022-08-20T05:14:43.198Z,72871.84
2022-08-20T05:15:18.170Z,72869.84
2022-08-20T05:15:51.229Z,72869.84
2022-08-20T05:16:24.731Z,72873.84
2022-08-20T05:17:00.354Z,72877.84
2022-08-20T05:17:32.722Z,72869.84
2022-08-20T05:18:07.823Z,72869.84
2022-08-20T05:18:44.358Z,72873.84
2022-08-20T05:19:22.867Z,72873.84
2022-08-20T05:19:55.324Z,72869.84
2022-08-20T05:20:31.394Z,72869.84
2022-08-20T05:21:06.052Z,72873.84
2022-08-20T05:21:38.772Z,72875.84
2022-08-20T05:22:13.713Z,72873.84
2022-08-20T05:22:46.118Z,72877.84
2022-08-20T05:23:19.853Z,72873.84
2022-08-20T05:23:54.775Z,72877.84
2022-08-20T05:24:27.052Z,72873.84
2022-08-20T05:25:01.897Z,72875.84
2022-08-20T05:25:37.337Z,72875.84
2022-08-20T05:26:10.549Z,72879.81
2022-08-20T05:26:43.198Z,72877.84
2022-08-20T05:27:25.003Z,72869.84
2022-08-20T05:28:00.682Z,72879.81
2022-08-20T05:28:35.506Z,72875.84
2022-08-20T05:29:28.142Z,72881.81
2022-08-20T05:30:07.361Z,72875.84
2022-08-20T05:30:48.003Z,72877.84
2022-08-20T05:31:21.575Z,72877.84
2022-08-20T05:31:56.898Z,72873.84
2022-08-20T05:32:30.365Z,72877.84
2022-08-20T05:33:04.066Z,72877.84
2022-08-20T05:33:40.358Z,72883.81
2022-08-20T05:34:13.039Z,72877.84
2022-08-20T05:34:45.941Z,72875.84
2022-08-20T05:35:21.109Z,72875.84
2022-08-20T05:35:54.573Z,72873.84
2022-08-20T05:36:27.106Z,72877.84
2022-08-20T05:37:03.842Z,72877.84
2022-08-20T05:37:41.390Z,72877.84
2022-08-20T05:38:18.391Z,72877.84
2022-08-20T05:38:53.974Z,72877.84
2022-08-20T05:39:26.385Z,72873.84
2022-08-20T05:39:58.758Z,72873.84
2022-08-20T05:40:34.383Z,72871.84
2022-08-20T05:41:06.729Z,72873.84
2022-08-20T05:41:42.404Z,72873.84
2022-08-20T05:42:14.730Z,72877.84
2022-08-20T05:42:47.146Z,72873.84
2022-08-20T05:43:22.106Z,72873.84
2022-08-20T05:43:54.385Z,72877.84
2022-08-20T05:44:26.718Z,72873.84
2022-08-20T05:45:01.815Z,72873.84
2022-08-20T05:45:39.070Z,72873.84
2022-08-20T05:46:11.418Z,72877.84
2022-08-20T05:46:47.638Z,72871.84
2022-08-20T05:47:20.059Z,72865.84
2022-08-20T05:47:56.660Z,72871.84
2022-08-20T05:48:35.652Z,72873.84
2022-08-20T05:49:08.281Z,72877.84
2022-08-20T05:49:41.042Z,72881.81
2022-08-20T05:50:20.735Z,72873.84
2022-08-20T05:50:56.557Z,72871.84
2022-08-20T05:51:32.493Z,72875.84
2022-08-20T05:52:05.474Z,72879.81
2022-08-20T05:52:37.894Z,72877.84
2022-08-20T05:53:12.926Z,72871.84
2022-08-20T05:53:45.274Z,72871.84
2022-08-20T05:54:20.196Z,72875.84
2022-08-20T05:54:55.629Z,72875.84
2022-08-20T05:55:31.383Z,72869.84
2022-08-20T05:56:04.685Z,72873.84
2022-08-20T05:56:39.776Z,72873.84
2022-08-20T05:57:14.073Z,72873.84
2022-08-20T05:57:46.395Z,72875.84
2022-08-20T05:58:22.883Z,72877.84
2022-08-20T05:58:55.251Z,72871.84
2022-08-20T05:59:27.746Z,72873.84
2022-08-20T06:00:02.952Z,72877.84
2022-08-20T06:00:47.229Z,72875.84
2022-08-20T06:01:19.693Z,72877.84
2022-08-20T06:01:55.258Z,72873.84
2022-08-20T06:02:42.593Z,72873.84
2022-08-20T06:03:29.930Z,72873.84
2022-08-20T06:04:17.507Z,72873.84
2022-08-20T06:04:55.037Z,72875.84
2022-08-20T06:05:28.804Z,72871.84
2022-08-20T06:06:04.490Z,72867.84
2022-08-20T06:06:51.922Z,72869.84
2022-08-20T06:07:26.927Z,72873.84
2022-08-20T06:08:07.094Z,72869.84
2022-08-20T06:08:40.486Z,72867.84
2022-08-20T06:09:15.474Z,72869.84
2022-08-20T06:09:48.814Z,72865.84
2022-08-20T06:10:23.793Z,72873.84
2022-08-20T06:10:56.194Z,72869.84
2022-08-20T06:11:28.498Z,72869.84
2022-08-20T06:12:04.558Z,72865.84
2022-08-20T06:12:37.652Z,72869.84
2022-08-20T06:13:10.375Z,72873.84
2022-08-20T06:13:48.979Z,72873.84
2022-08-20T06:14:22.058Z,72869.84
2022-08-20T06:14:56.985Z,72873.84
2022-08-20T06:15:29.422Z,72869.84
2022-08-20T06:16:06.930Z,72871.84
2022-08-20T06:16:57.469Z,72875.84
2022-08-20T06:17:39.432Z,72869.84
2022-08-20T06:18:27.350Z,72871.84
2022-08-20T06:19:02.835Z,72871.84
2022-08-20T06:19:38.836Z,72873.84
2022-08-20T06:20:12.197Z,72873.84
2022-08-20T06:20:46.598Z,72869.84
2022-08-20T06:21:21.555Z,72871.84
2022-08-20T06:21:53.948Z,72873.84
2022-08-20T06:22:26.515Z,72873.84
2022-08-20T06:23:03.269Z,72869.84
2022-08-20T06:23:56.513Z,72871.84
2022-08-20T06:24:30.683Z,72873.84
2022-08-20T06:25:03.453Z,72873.84
2022-08-20T06:25:38.056Z,72877.84
2022-08-20T06:26:13.050Z,72873.84
2022-08-20T06:26:45.373Z,72875.84
2022-08-20T06:27:20.699Z,72875.84
2022-08-20T06:27:53.126Z,72873.84
2022-08-20T06:28:25.477Z,72877.84
2022-08-20T06:29:00.478Z,72877.84
2022-08-20T06:29:33.526Z,72881.81
2022-08-20T06:30:10.331Z,72877.84
2022-08-20T06:30:42.662Z,72881.81
2022-08-20T06:31:22.010Z,72877.84
2022-08-20T06:31:54.426Z,72875.84
2022-08-20T06:32:29.784Z,72873.84
2022-08-20T06:33:07.700Z,72875.84
2022-08-20T06:33:40.019Z,72877.84
2022-08-20T06:34:12.342Z,72885.81
2022-08-20T06:34:49.735Z,72877.84
2022-08-20T06:35:23.799Z,72877.84
2022-08-20T06:35:59.295Z,72881.81
2022-08-20T06:36:31.653Z,72877.84
2022-08-20T06:37:14.591Z,72881.81
2022-08-20T06:37:50.230Z,72881.81
2022-08-20T06:38:23.275Z,72883.81
2022-08-20T06:38:56.301Z,72889.81
2022-08-20T06:39:31.625Z,72881.81
2022-08-20T06:40:07.798Z,72881.81
2022-08-20T06:40:42.902Z,72883.81
2022-08-20T06:41:15.334Z,72881.81
2022-08-20T06:41:47.678Z,72887.81
2022-08-20T06:42:23.998Z,72883.81
2022-08-20T06:42:56.709Z,72881.81
2022-08-20T06:43:29.132Z,72881.81
2022-08-20T06:44:04.086Z,72881.81
2022-08-20T06:44:36.996Z,72885.81
2022-08-20T06:45:10.554Z,72893.81
2022-08-20T06:45:45.607Z,72881.81
2022-08-20T06:46:21.683Z,72887.81
2022-08-20T06:46:55.256Z,72875.84
2022-08-20T06:47:31.409Z,72883.81
2022-08-20T06:48:08.820Z,72881.81
2022-08-20T06:48:44.188Z,72881.81
2022-08-20T06:49:16.514Z,72885.81
2022-08-20T06:49:49.362Z,72881.81
2022-08-20T06:50:26.361Z,72881.81
2022-08-20T06:50:58.846Z,72877.84
2022-08-20T06:51:31.188Z,72881.81
2022-08-20T06:52:07.234Z,72881.81
2022-08-20T06:52:52.032Z,72879.81
2022-08-20T06:53:29.148Z,72877.84
2022-08-20T06:54:01.625Z,72877.84
2022-08-20T06:54:34.482Z,72877.84
2022-08-20T06:55:11.787Z,72879.81
2022-08-20T06:55:48.489Z,72875.84
2022-08-20T06:56:21.045Z,72877.84
2022-08-20T06:56:56.153Z,72875.84
2022-08-20T06:57:28.462Z,72877.84
2022-08-20T06:58:02.677Z,72877.84
2022-08-20T06:58:38.912Z,72873.84
2022-08-20T06:59:11.299Z,72873.84
2022-08-20T06:59:43.669Z,72877.84
2022-08-20T07:00:23.890Z,72873.84
2022-08-20T07:00:56.261Z,72877.84
2022-08-20T07:01:31.302Z,72873.84
2022-08-20T07:02:06.367Z,72869.84
2022-08-20T07:02:38.698Z,72875.84
2022-08-20T07:03:11.861Z,72869.84
2022-08-20T07:03:55.298Z,72875.84
2022-08-20T07:04:28.369Z,72869.84
2022-08-20T07:05:03.327Z,72875.84